sensor_id;sensor_type;location;lat;lon;timestamp;temperature;humidity
29539;DHT22;16482;51.046;4.498;2023-08-21T00:00:05;27.00;52.20
29539;DHT22;16482;51.046;4.498;2023-08-21T00:02:31;27.00;52.20
29539;DHT22;16482;51.046;4.498;2023-08-21T00:05:00;27.00;52.10
29539;DHT22;16482;51.046;4.498;2023-08-21T00:07:26;27.00;52.20
29539;DHT22;16482;51.046;4.498;2023-08-21T00:09:52;27.00;52.10
29539;DHT22;16482;51.046;4.498;2023-08-21T00:12:18;27.00;52.20
29539;DHT22;16482;51.046;4.498;2023-08-21T00:14:44;27.00;52.10
29539;DHT22;16482;51.046;4.498;2023-08-21T00:17:10;27.00;52.10
29539;DHT22;16482;51.046;4.498;2023-08-21T00:19:35;27.00;52.10
29539;DHT22;16482;51.046;4.498;2023-08-21T00:22:02;27.00;52.40
29539;DHT22;16482;51.046;4.498;2023-08-21T00:24:30;27.00;52.10
29539;DHT22;16482;51.046;4.498;2023-08-21T00:26:56;27.00;52.00
29539;DHT22;16482;51.046;4.498;2023-08-21T00:29:22;27.00;52.00
29539;DHT22;16482;51.046;4.498;2023-08-21T00:31:48;26.90;51.90
29539;DHT22;16482;51.046;4.498;2023-08-21T00:34:14;27.00;52.10
29539;DHT22;16482;51.046;4.498;2023-08-21T00:36:43;27.00;52.00
29539;DHT22;16482;51.046;4.498;2023-08-21T00:39:18;27.00;52.00
29539;DHT22;16482;51.046;4.498;2023-08-21T00:41:44;27.00;52.00
29539;DHT22;16482;51.046;4.498;2023-08-21T00:44:13;27.00;52.00
29539;DHT22;16482;51.046;4.498;2023-08-21T00:46:44;26.90;52.00
29539;DHT22;16482;51.046;4.498;2023-08-21T00:49:15;26.90;52.00
29539;DHT22;16482;51.046;4.498;2023-08-21T00:51:44;27.00;52.10
29539;DHT22;16482;51.046;4.498;2023-08-21T00:54:10;27.00;52.00
29539;DHT22;16482;51.046;4.498;2023-08-21T00:56:36;26.90;52.10
29539;DHT22;16482;51.046;4.498;2023-08-21T00:59:02;26.90;52.00
29539;DHT22;16482;51.046;4.498;2023-08-21T01:01:28;26.90;52.10
29539;DHT22;16482;51.046;4.498;2023-08-21T01:03:54;26.90;52.00
29539;DHT22;16482;51.046;4.498;2023-08-21T01:06:20;26.90;52.00
29539;DHT22;16482;51.046;4.498;2023-08-21T01:09:08;26.90;52.50
29539;DHT22;16482;51.046;4.498;2023-08-21T01:14:31;26.90;51.90
29539;DHT22;16482;51.046;4.498;2023-08-21T01:17:04;26.90;52.00
29539;DHT22;16482;51.046;4.498;2023-08-21T01:19:38;26.90;52.10
29539;DHT22;16482;51.046;4.498;2023-08-21T01:22:06;26.90;52.00
29539;DHT22;16482;51.046;4.498;2023-08-21T01:24:32;26.90;52.10
29539;DHT22;16482;51.046;4.498;2023-08-21T01:26:58;26.80;52.00
29539;DHT22;16482;51.046;4.498;2023-08-21T01:29:25;26.90;52.20
29539;DHT22;16482;51.046;4.498;2023-08-21T01:32:01;26.90;52.10
29539;DHT22;16482;51.046;4.498;2023-08-21T01:34:29;26.90;51.90
29539;DHT22;16482;51.046;4.498;2023-08-21T01:37:00;26.90;51.90
29539;DHT22;16482;51.046;4.498;2023-08-21T01:39:29;26.90;51.90
29539;DHT22;16482;51.046;4.498;2023-08-21T01:41:56;26.90;51.90
29539;DHT22;16482;51.046;4.498;2023-08-21T01:44:22;26.90;51.90
29539;DHT22;16482;51.046;4.498;2023-08-21T01:46:49;26.90;52.00
29539;DHT22;16482;51.046;4.498;2023-08-21T01:49:15;26.90;52.10
29539;DHT22;16482;51.046;4.498;2023-08-21T01:51:43;26.90;52.10
29539;DHT22;16482;51.046;4.498;2023-08-21T01:54:09;26.90;52.10
29539;DHT22;16482;51.046;4.498;2023-08-21T01:56:35;26.90;52.10
29539;DHT22;16482;51.046;4.498;2023-08-21T01:59:03;26.90;52.10
29539;DHT22;16482;51.046;4.498;2023-08-21T02:01:29;26.80;51.90
29539;DHT22;16482;51.046;4.498;2023-08-21T02:03:55;26.80;52.00
29539;DHT22;16482;51.046;4.498;2023-08-21T02:06:21;26.80;52.00
29539;DHT22;16482;51.046;4.498;2023-08-21T02:08:49;26.90;52.10
29539;DHT22;16482;51.046;4.498;2023-08-21T02:11:15;26.80;52.00
29539;DHT22;16482;51.046;4.498;2023-08-21T02:13:41;26.80;52.00
29539;DHT22;16482;51.046;4.498;2023-08-21T02:16:07;26.80;52.00
29539;DHT22;16482;51.046;4.498;2023-08-21T02:18:32;26.80;52.00
29539;DHT22;16482;51.046;4.498;2023-08-21T02:21:01;26.90;52.00
29539;DHT22;16482;51.046;4.498;2023-08-21T02:23:27;26.80;51.90
29539;DHT22;16482;51.046;4.498;2023-08-21T02:25:54;26.80;51.90
29539;DHT22;16482;51.046;4.498;2023-08-21T02:28:23;26.90;51.90
29539;DHT22;16482;51.046;4.498;2023-08-21T02:30:56;26.80;51.90
29539;DHT22;16482;51.046;4.498;2023-08-21T02:33:25;26.80;51.90
29539;DHT22;16482;51.046;4.498;2023-08-21T02:35:58;26.80;52.00
29539;DHT22;16482;51.046;4.498;2023-08-21T02:38:24;26.80;51.90
29539;DHT22;16482;51.046;4.498;2023-08-21T02:40:53;26.80;52.00
29539;DHT22;16482;51.046;4.498;2023-08-21T02:43:21;26.80;51.90
29539;DHT22;16482;51.046;4.498;2023-08-21T02:45:47;26.80;51.90
29539;DHT22;16482;51.046;4.498;2023-08-21T02:48:13;26.80;52.00
29539;DHT22;16482;51.046;4.498;2023-08-21T02:50:39;26.80;52.00
29539;DHT22;16482;51.046;4.498;2023-08-21T02:53:07;26.80;52.10
29539;DHT22;16482;51.046;4.498;2023-08-21T02:55:33;26.80;52.10
29539;DHT22;16482;51.046;4.498;2023-08-21T02:57:59;26.80;52.10
29539;DHT22;16482;51.046;4.498;2023-08-21T03:00:25;26.80;52.10
29539;DHT22;16482;51.046;4.498;2023-08-21T03:02:51;26.80;52.10
29539;DHT22;16482;51.046;4.498;2023-08-21T03:05:18;26.80;52.10
29539;DHT22;16482;51.046;4.498;2023-08-21T03:07:44;26.80;52.10
29539;DHT22;16482;51.046;4.498;2023-08-21T03:10:10;26.80;52.10
29539;DHT22;16482;51.046;4.498;2023-08-21T03:12:36;26.70;52.00
29539;DHT22;16482;51.046;4.498;2023-08-21T03:15:05;26.80;52.10
29539;DHT22;16482;51.046;4.498;2023-08-21T03:17:33;26.80;52.10
29539;DHT22;16482;51.046;4.498;2023-08-21T03:19:59;26.80;52.20
29539;DHT22;16482;51.046;4.498;2023-08-21T03:22:35;26.70;52.10
29539;DHT22;16482;51.046;4.498;2023-08-21T03:25:04;26.80;52.10
29539;DHT22;16482;51.046;4.498;2023-08-21T03:27:30;26.80;52.10
29539;DHT22;16482;51.046;4.498;2023-08-21T03:29:56;26.70;52.10
29539;DHT22;16482;51.046;4.498;2023-08-21T03:32:26;26.80;52.10
29539;DHT22;16482;51.046;4.498;2023-08-21T03:34:52;26.80;52.20
29539;DHT22;16482;51.046;4.498;2023-08-21T03:37:18;26.80;52.20
29539;DHT22;16482;51.046;4.498;2023-08-21T03:39:44;26.80;52.20
29539;DHT22;16482;51.046;4.498;2023-08-21T03:42:10;26.80;52.20
29539;DHT22;16482;51.046;4.498;2023-08-21T03:44:38;26.70;52.20
29539;DHT22;16482;51.046;4.498;2023-08-21T03:47:04;26.70;52.20
29539;DHT22;16482;51.046;4.498;2023-08-21T03:49:32;26.70;52.20
29539;DHT22;16482;51.046;4.498;2023-08-21T03:51:58;26.70;52.10
29539;DHT22;16482;51.046;4.498;2023-08-21T03:54:24;26.80;52.20
29539;DHT22;16482;51.046;4.498;2023-08-21T03:56:50;26.70;52.10
29539;DHT22;16482;51.046;4.498;2023-08-21T03:59:16;26.70;52.20
29539;DHT22;16482;51.046;4.498;2023-08-21T04:01:44;26.70;52.10
29539;DHT22;16482;51.046;4.498;2023-08-21T04:04:10;26.70;52.10
29539;DHT22;16482;51.046;4.498;2023-08-21T04:06:36;26.70;52.10
29539;DHT22;16482;51.046;4.498;2023-08-21T04:09:02;26.80;52.20
29539;DHT22;16482;51.046;4.498;2023-08-21T04:11:32;26.70;52.20
29539;DHT22;16482;51.046;4.498;2023-08-21T04:13:58;26.70;52.10
29539;DHT22;16482;51.046;4.498;2023-08-21T04:16:27;26.70;52.10
29539;DHT22;16482;51.046;4.498;2023-08-21T04:18:54;26.70;52.10
29539;DHT22;16482;51.046;4.498;2023-08-21T04:21:20;26.70;52.10
29539;DHT22;16482;51.046;4.498;2023-08-21T04:23:46;26.70;52.20
29539;DHT22;16482;51.046;4.498;2023-08-21T04:26:12;26.70;52.20
29539;DHT22;16482;51.046;4.498;2023-08-21T04:28:38;26.70;52.10
29539;DHT22;16482;51.046;4.498;2023-08-21T04:31:07;26.70;52.10
29539;DHT22;16482;51.046;4.498;2023-08-21T04:33:34;26.70;52.10
29539;DHT22;16482;51.046;4.498;2023-08-21T04:36:00;26.70;52.20
29539;DHT22;16482;51.046;4.498;2023-08-21T04:38:26;26.70;52.10
29539;DHT22;16482;51.046;4.498;2023-08-21T04:40:52;26.70;52.20
29539;DHT22;16482;51.046;4.498;2023-08-21T04:43:18;26.70;52.20
29539;DHT22;16482;51.046;4.498;2023-08-21T04:45:54;26.70;52.20
29539;DHT22;16482;51.046;4.498;2023-08-21T04:48:20;26.70;52.10
29539;DHT22;16482;51.046;4.498;2023-08-21T04:50:46;26.70;52.10
29539;DHT22;16482;51.046;4.498;2023-08-21T04:53:13;26.70;52.10
29539;DHT22;16482;51.046;4.498;2023-08-21T04:55:42;26.70;52.20
29539;DHT22;16482;51.046;4.498;2023-08-21T04:58:08;26.70;52.10
29539;DHT22;16482;51.046;4.498;2023-08-21T05:00:35;26.70;52.10
29539;DHT22;16482;51.046;4.498;2023-08-21T05:03:01;26.70;52.10
29539;DHT22;16482;51.046;4.498;2023-08-21T05:05:27;26.70;52.10
29539;DHT22;16482;51.046;4.498;2023-08-21T05:07:53;26.60;52.10
29539;DHT22;16482;51.046;4.498;2023-08-21T05:10:19;26.70;52.20
29539;DHT22;16482;51.046;4.498;2023-08-21T05:12:46;26.60;52.20
29539;DHT22;16482;51.046;4.498;2023-08-21T05:15:12;26.70;52.10
29539;DHT22;16482;51.046;4.498;2023-08-21T05:17:38;26.70;52.10
29539;DHT22;16482;51.046;4.498;2023-08-21T05:20:04;26.70;52.20
29539;DHT22;16482;51.046;4.498;2023-08-21T05:22:39;26.70;52.10
29539;DHT22;16482;51.046;4.498;2023-08-21T05:25:06;26.60;52.10
29539;DHT22;16482;51.046;4.498;2023-08-21T05:27:34;26.70;52.10
29539;DHT22;16482;51.046;4.498;2023-08-21T05:30:00;26.70;52.10
29539;DHT22;16482;51.046;4.498;2023-08-21T05:32:43;26.70;52.10
29539;DHT22;16482;51.046;4.498;2023-08-21T05:35:09;26.60;52.00
29539;DHT22;16482;51.046;4.498;2023-08-21T05:37:35;26.60;52.10
29539;DHT22;16482;51.046;4.498;2023-08-21T05:40:04;26.60;52.10
29539;DHT22;16482;51.046;4.498;2023-08-21T05:42:31;26.70;52.20
29539;DHT22;16482;51.046;4.498;2023-08-21T05:44:57;26.60;52.20
29539;DHT22;16482;51.046;4.498;2023-08-21T05:47:23;26.60;52.20
29539;DHT22;16482;51.046;4.498;2023-08-21T05:49:50;26.60;52.20
29539;DHT22;16482;51.046;4.498;2023-08-21T05:52:16;26.60;52.20
29539;DHT22;16482;51.046;4.498;2023-08-21T05:54:42;26.60;52.10
29539;DHT22;16482;51.046;4.498;2023-08-21T05:57:08;26.60;52.10
29539;DHT22;16482;51.046;4.498;2023-08-21T05:59:34;26.60;52.20
29539;DHT22;16482;51.046;4.498;2023-08-21T06:02:00;26.70;52.20
29539;DHT22;16482;51.046;4.498;2023-08-21T06:04:27;26.70;52.20
29539;DHT22;16482;51.046;4.498;2023-08-21T06:06:56;26.60;52.70
29539;DHT22;16482;51.046;4.498;2023-08-21T06:09:22;26.70;52.20
29539;DHT22;16482;51.046;4.498;2023-08-21T06:11:48;26.70;52.10
29539;DHT22;16482;51.046;4.498;2023-08-21T06:14:15;26.60;52.20
29539;DHT22;16482;51.046;4.498;2023-08-21T06:16:41;26.60;52.80
29539;DHT22;16482;51.046;4.498;2023-08-21T06:19:07;26.70;52.20
29539;DHT22;16482;51.046;4.498;2023-08-21T06:21:32;26.70;52.20
29539;DHT22;16482;51.046;4.498;2023-08-21T06:23:58;26.70;52.20
29539;DHT22;16482;51.046;4.498;2023-08-21T06:26:24;26.60;52.20
29539;DHT22;16482;51.046;4.498;2023-08-21T06:28:51;26.60;52.20
29539;DHT22;16482;51.046;4.498;2023-08-21T06:31:18;26.70;52.20
29539;DHT22;16482;51.046;4.498;2023-08-21T06:33:44;26.60;52.10
29539;DHT22;16482;51.046;4.498;2023-08-21T06:36:09;26.60;52.20
29539;DHT22;16482;51.046;4.498;2023-08-21T06:38:35;26.60;52.20
29539;DHT22;16482;51.046;4.498;2023-08-21T06:41:01;26.60;52.30
29539;DHT22;16482;51.046;4.498;2023-08-21T06:43:27;26.70;52.30
29539;DHT22;16482;51.046;4.498;2023-08-21T06:45:53;26.70;52.20
29539;DHT22;16482;51.046;4.498;2023-08-21T06:48:19;26.70;52.30
29539;DHT22;16482;51.046;4.498;2023-08-21T06:50:45;26.80;52.00
29539;DHT22;16482;51.046;4.498;2023-08-21T06:53:11;27.10;51.70
29539;DHT22;16482;51.046;4.498;2023-08-21T06:55:39;27.30;51.10
29539;DHT22;16482;51.046;4.498;2023-08-21T06:58:05;27.50;50.70
29539;DHT22;16482;51.046;4.498;2023-08-21T07:00:31;27.70;50.40
29539;DHT22;16482;51.046;4.498;2023-08-21T07:02:57;27.80;50.10
29539;DHT22;16482;51.046;4.498;2023-08-21T07:05:23;27.90;49.80
29539;DHT22;16482;51.046;4.498;2023-08-21T07:07:49;28.00;49.70
29539;DHT22;16482;51.046;4.498;2023-08-21T07:10:15;28.00;49.50
29539;DHT22;16482;51.046;4.498;2023-08-21T07:12:41;28.00;49.60
29539;DHT22;16482;51.046;4.498;2023-08-21T07:15:07;27.90;49.60
29539;DHT22;16482;51.046;4.498;2023-08-21T07:17:41;27.90;49.60
29539;DHT22;16482;51.046;4.498;2023-08-21T07:20:07;27.80;49.70
29539;DHT22;16482;51.046;4.498;2023-08-21T07:22:33;27.80;49.80
29539;DHT22;16482;51.046;4.498;2023-08-21T07:25:03;27.70;49.80
29539;DHT22;16482;51.046;4.498;2023-08-21T07:27:32;27.70;49.80
29539;DHT22;16482;51.046;4.498;2023-08-21T07:30:07;27.70;50.00
29539;DHT22;16482;51.046;4.498;2023-08-21T07:32:43;27.60;49.90
29539;DHT22;16482;51.046;4.498;2023-08-21T07:35:09;27.60;50.00
29539;DHT22;16482;51.046;4.498;2023-08-21T07:37:38;27.60;50.10
29539;DHT22;16482;51.046;4.498;2023-08-21T07:40:07;27.60;50.10
29539;DHT22;16482;51.046;4.498;2023-08-21T07:42:33;27.50;50.10
29539;DHT22;16482;51.046;4.498;2023-08-21T07:45:04;27.50;50.30
29539;DHT22;16482;51.046;4.498;2023-08-21T07:47:31;27.50;50.20
29539;DHT22;16482;51.046;4.498;2023-08-21T07:50:00;27.50;50.30
29539;DHT22;16482;51.046;4.498;2023-08-21T07:52:26;27.50;50.30
29539;DHT22;16482;51.046;4.498;2023-08-21T07:54:55;27.40;50.30
29539;DHT22;16482;51.046;4.498;2023-08-21T07:57:21;27.50;50.30
29539;DHT22;16482;51.046;4.498;2023-08-21T07:59:56;27.50;50.30
29539;DHT22;16482;51.046;4.498;2023-08-21T08:02:23;27.50;50.30
29539;DHT22;16482;51.046;4.498;2023-08-21T08:04:49;27.40;50.20
29539;DHT22;16482;51.046;4.498;2023-08-21T08:07:15;27.50;50.20
29539;DHT22;16482;51.046;4.498;2023-08-21T08:09:41;27.50;50.30
29539;DHT22;16482;51.046;4.498;2023-08-21T08:12:07;27.40;50.30
29539;DHT22;16482;51.046;4.498;2023-08-21T08:14:34;27.40;50.30
29539;DHT22;16482;51.046;4.498;2023-08-21T08:17:00;27.30;50.30
29539;DHT22;16482;51.046;4.498;2023-08-21T08:19:28;27.30;50.60
29539;DHT22;16482;51.046;4.498;2023-08-21T08:21:54;27.30;50.70
29539;DHT22;16482;51.046;4.498;2023-08-21T08:24:20;27.30;50.80
29539;DHT22;16482;51.046;4.498;2023-08-21T08:26:48;27.20;50.70
29539;DHT22;16482;51.046;4.498;2023-08-21T08:29:17;27.20;50.80
29539;DHT22;16482;51.046;4.498;2023-08-21T08:31:43;27.20;50.80
29539;DHT22;16482;51.046;4.498;2023-08-21T08:34:12;27.20;50.90
29539;DHT22;16482;51.046;4.498;2023-08-21T08:36:48;27.20;51.00
29539;DHT22;16482;51.046;4.498;2023-08-21T08:39:18;27.20;51.00
29539;DHT22;16482;51.046;4.498;2023-08-21T08:41:54;27.20;51.00
29539;DHT22;16482;51.046;4.498;2023-08-21T08:44:25;27.20;50.90
29539;DHT22;16482;51.046;4.498;2023-08-21T08:46:52;27.10;51.10
29539;DHT22;16482;51.046;4.498;2023-08-21T08:49:18;27.10;51.10
29539;DHT22;16482;51.046;4.498;2023-08-21T08:51:51;27.10;51.10
29539;DHT22;16482;51.046;4.498;2023-08-21T08:54:21;27.10;51.10
29539;DHT22;16482;51.046;4.498;2023-08-21T08:56:47;27.10;51.10
29539;DHT22;16482;51.046;4.498;2023-08-21T08:59:16;27.10;51.20
29539;DHT22;16482;51.046;4.498;2023-08-21T09:01:49;27.10;51.10
29539;DHT22;16482;51.046;4.498;2023-08-21T09:04:18;27.10;51.20
29539;DHT22;16482;51.046;4.498;2023-08-21T09:06:47;27.10;51.30
29539;DHT22;16482;51.046;4.498;2023-08-21T09:09:16;27.10;51.30
29539;DHT22;16482;51.046;4.498;2023-08-21T09:11:50;27.10;51.20
29539;DHT22;16482;51.046;4.498;2023-08-21T09:14:26;27.10;51.20
29539;DHT22;16482;51.046;4.498;2023-08-21T09:17:01;27.10;51.10
29539;DHT22;16482;51.046;4.498;2023-08-21T09:19:30;27.00;51.10
29539;DHT22;16482;51.046;4.498;2023-08-21T09:22:08;27.10;51.30
29539;DHT22;16482;51.046;4.498;2023-08-21T09:24:59;27.10;51.30
29539;DHT22;16482;51.046;4.498;2023-08-21T09:27:25;27.10;51.30
29539;DHT22;16482;51.046;4.498;2023-08-21T09:29:51;27.10;51.40
29539;DHT22;16482;51.046;4.498;2023-08-21T09:32:17;27.10;51.30
29539;DHT22;16482;51.046;4.498;2023-08-21T09:34:43;27.10;51.30
29539;DHT22;16482;51.046;4.498;2023-08-21T09:37:12;27.10;51.30
29539;DHT22;16482;51.046;4.498;2023-08-21T09:39:38;27.20;51.50
29539;DHT22;16482;51.046;4.498;2023-08-21T09:42:07;27.20;51.50
29539;DHT22;16482;51.046;4.498;2023-08-21T09:44:40;27.20;51.40
29539;DHT22;16482;51.046;4.498;2023-08-21T09:47:10;27.30;51.40
29539;DHT22;16482;51.046;4.498;2023-08-21T09:49:36;27.30;51.30
29539;DHT22;16482;51.046;4.498;2023-08-21T09:52:08;27.20;51.20
29539;DHT22;16482;51.046;4.498;2023-08-21T09:54:39;27.30;51.10
29539;DHT22;16482;51.046;4.498;2023-08-21T09:57:06;27.30;51.00
29539;DHT22;16482;51.046;4.498;2023-08-21T09:59:41;27.30;51.10
29539;DHT22;16482;51.046;4.498;2023-08-21T10:02:09;27.30;50.90
29539;DHT22;16482;51.046;4.498;2023-08-21T10:04:37;27.40;50.90
29539;DHT22;16482;51.046;4.498;2023-08-21T10:07:06;27.30;50.70
29539;DHT22;16482;51.046;4.498;2023-08-21T10:09:33;27.30;50.60
29539;DHT22;16482;51.046;4.498;2023-08-21T10:11:59;27.40;50.60
29539;DHT22;16482;51.046;4.498;2023-08-21T10:14:26;27.30;50.50
29539;DHT22;16482;51.046;4.498;2023-08-21T10:16:53;27.40;50.40
29539;DHT22;16482;51.046;4.498;2023-08-21T10:19:20;27.40;50.30
29539;DHT22;16482;51.046;4.498;2023-08-21T10:21:49;27.40;50.40
29539;DHT22;16482;51.046;4.498;2023-08-21T10:24:28;27.40;50.20
29539;DHT22;16482;51.046;4.498;2023-08-21T10:26:59;27.40;50.10
29539;DHT22;16482;51.046;4.498;2023-08-21T10:29:25;27.40;50.10
29539;DHT22;16482;51.046;4.498;2023-08-21T10:32:05;27.40;50.10
29539;DHT22;16482;51.046;4.498;2023-08-21T10:34:33;27.40;50.00
29539;DHT22;16482;51.046;4.498;2023-08-21T10:39:32;27.30;50.30
29539;DHT22;16482;51.046;4.498;2023-08-21T10:42:07;27.30;50.20
29539;DHT22;16482;51.046;4.498;2023-08-21T10:49:58;27.30;50.30
29539;DHT22;16482;51.046;4.498;2023-08-21T10:52:34;27.30;50.30
29539;DHT22;16482;51.046;4.498;2023-08-21T10:55:03;27.40;50.30
29539;DHT22;16482;51.046;4.498;2023-08-21T10:57:37;27.40;50.30
29539;DHT22;16482;51.046;4.498;2023-08-21T11:00:12;27.40;50.10
29539;DHT22;16482;51.046;4.498;2023-08-21T11:02:49;27.40;49.90
29539;DHT22;16482;51.046;4.498;2023-08-21T11:05:16;27.40;50.00
29539;DHT22;16482;51.046;4.498;2023-08-21T11:07:48;27.40;50.10
29539;DHT22;16482;51.046;4.498;2023-08-21T11:10:18;27.40;49.90
29539;DHT22;16482;51.046;4.498;2023-08-21T11:12:54;27.40;50.00
29539;DHT22;16482;51.046;4.498;2023-08-21T11:15:25;27.40;49.60
29539;DHT22;16482;51.046;4.498;2023-08-21T11:18:01;27.40;49.60
29539;DHT22;16482;51.046;4.498;2023-08-21T11:20:30;27.40;49.70
29539;DHT22;16482;51.046;4.498;2023-08-21T11:23:00;27.40;49.70
29539;DHT22;16482;51.046;4.498;2023-08-21T11:25:29;27.40;49.60
29539;DHT22;16482;51.046;4.498;2023-08-21T11:27:58;27.50;49.70
29539;DHT22;16482;51.046;4.498;2023-08-21T11:30:28;27.50;49.80
29539;DHT22;16482;51.046;4.498;2023-08-21T11:33:11;27.40;49.80
29539;DHT22;16482;51.046;4.498;2023-08-21T11:35:38;27.50;49.70
29539;DHT22;16482;51.046;4.498;2023-08-21T11:38:05;27.40;49.60
29539;DHT22;16482;51.046;4.498;2023-08-21T11:40:34;27.40;49.70
29539;DHT22;16482;51.046;4.498;2023-08-21T11:43:01;27.50;49.60
29539;DHT22;16482;51.046;4.498;2023-08-21T11:45:30;27.50;49.60
29539;DHT22;16482;51.046;4.498;2023-08-21T11:47:56;27.50;49.60
29539;DHT22;16482;51.046;4.498;2023-08-21T11:50:22;27.60;49.50
29539;DHT22;16482;51.046;4.498;2023-08-21T11:52:52;27.60;49.40
29539;DHT22;16482;51.046;4.498;2023-08-21T11:55:18;27.60;49.30
29539;DHT22;16482;51.046;4.498;2023-08-21T11:57:51;27.60;49.40
29539;DHT22;16482;51.046;4.498;2023-08-21T12:00:19;27.60;49.30
29539;DHT22;16482;51.046;4.498;2023-08-21T12:02:56;27.60;49.40
29539;DHT22;16482;51.046;4.498;2023-08-21T12:05:22;27.60;49.30
29539;DHT22;16482;51.046;4.498;2023-08-21T12:07:48;27.60;49.40
29539;DHT22;16482;51.046;4.498;2023-08-21T12:10:14;27.60;49.40
29539;DHT22;16482;51.046;4.498;2023-08-21T12:12:40;27.60;49.70
29539;DHT22;16482;51.046;4.498;2023-08-21T12:15:06;27.60;49.70
29539;DHT22;16482;51.046;4.498;2023-08-21T12:17:38;27.60;49.80
29539;DHT22;16482;51.046;4.498;2023-08-21T12:20:14;27.60;50.30
29539;DHT22;16482;51.046;4.498;2023-08-21T12:22:42;27.60;50.50
29539;DHT22;16482;51.046;4.498;2023-08-21T12:25:11;27.60;50.40
29539;DHT22;16482;51.046;4.498;2023-08-21T12:27:39;27.60;50.50
29539;DHT22;16482;51.046;4.498;2023-08-21T12:30:07;27.60;50.60
29539;DHT22;16482;51.046;4.498;2023-08-21T12:32:34;27.60;50.60
29539;DHT22;16482;51.046;4.498;2023-08-21T12:35:10;27.60;50.60
29539;DHT22;16482;51.046;4.498;2023-08-21T12:37:37;27.60;50.50
29539;DHT22;16482;51.046;4.498;2023-08-21T12:40:06;27.60;50.50
29539;DHT22;16482;51.046;4.498;2023-08-21T12:42:40;27.60;50.40
29539;DHT22;16482;51.046;4.498;2023-08-21T12:45:06;27.60;50.40
29539;DHT22;16482;51.046;4.498;2023-08-21T12:47:32;27.70;50.10
29539;DHT22;16482;51.046;4.498;2023-08-21T12:49:58;27.60;50.20
29539;DHT22;16482;51.046;4.498;2023-08-21T12:52:24;27.70;50.00
29539;DHT22;16482;51.046;4.498;2023-08-21T12:54:51;27.70;50.00
29539;DHT22;16482;51.046;4.498;2023-08-21T12:57:17;27.70;49.90
29539;DHT22;16482;51.046;4.498;2023-08-21T12:59:43;27.70;49.90
29539;DHT22;16482;51.046;4.498;2023-08-21T13:02:09;27.80;49.80
29539;DHT22;16482;51.046;4.498;2023-08-21T13:04:35;27.70;49.70
29539;DHT22;16482;51.046;4.498;2023-08-21T13:07:01;27.80;49.70
29539;DHT22;16482;51.046;4.498;2023-08-21T13:09:29;27.70;49.60
29539;DHT22;16482;51.046;4.498;2023-08-21T13:11:55;27.70;49.50
29539;DHT22;16482;51.046;4.498;2023-08-21T13:14:21;27.70;49.80
29539;DHT22;16482;51.046;4.498;2023-08-21T13:16:50;27.70;49.70
29539;DHT22;16482;51.046;4.498;2023-08-21T13:19:16;27.60;49.70
29539;DHT22;16482;51.046;4.498;2023-08-21T13:21:42;27.70;49.80
29539;DHT22;16482;51.046;4.498;2023-08-21T13:24:08;27.70;49.70
29539;DHT22;16482;51.046;4.498;2023-08-21T13:26:37;27.60;49.70
29539;DHT22;16482;51.046;4.498;2023-08-21T13:29:03;27.60;49.90
29539;DHT22;16482;51.046;4.498;2023-08-21T13:31:29;27.60;49.60
29539;DHT22;16482;51.046;4.498;2023-08-21T13:33:55;27.60;49.80
29539;DHT22;16482;51.046;4.498;2023-08-21T13:36:21;27.60;49.80
29539;DHT22;16482;51.046;4.498;2023-08-21T13:38:47;27.60;49.80
29539;DHT22;16482;51.046;4.498;2023-08-21T13:41:13;27.60;49.60
29539;DHT22;16482;51.046;4.498;2023-08-21T13:43:39;27.60;49.60
29539;DHT22;16482;51.046;4.498;2023-08-21T13:46:05;27.60;49.80
29539;DHT22;16482;51.046;4.498;2023-08-21T13:48:31;27.60;49.70
29539;DHT22;16482;51.046;4.498;2023-08-21T13:50:57;27.60;49.00
29539;DHT22;16482;51.046;4.498;2023-08-21T13:53:29;27.50;49.30
29539;DHT22;16482;51.046;4.498;2023-08-21T13:55:57;27.50;49.50
29539;DHT22;16482;51.046;4.498;2023-08-21T13:58:23;27.50;49.40
29539;DHT22;16482;51.046;4.498;2023-08-21T14:00:59;27.50;49.40
29539;DHT22;16482;51.046;4.498;2023-08-21T14:03:28;27.50;49.30
29539;DHT22;16482;51.046;4.498;2023-08-21T14:05:56;27.50;49.30
29539;DHT22;16482;51.046;4.498;2023-08-21T14:08:27;27.50;49.30
29539;DHT22;16482;51.046;4.498;2023-08-21T14:11:00;27.50;49.20
29539;DHT22;16482;51.046;4.498;2023-08-21T14:13:29;27.40;49.10
29539;DHT22;16482;51.046;4.498;2023-08-21T14:15:57;27.50;49.00
29539;DHT22;16482;51.046;4.498;2023-08-21T14:18:23;27.50;49.20
29539;DHT22;16482;51.046;4.498;2023-08-21T14:20:58;27.50;49.10
29539;DHT22;16482;51.046;4.498;2023-08-21T14:23:31;27.50;49.20
29539;DHT22;16482;51.046;4.498;2023-08-21T14:25:57;27.40;48.70
29539;DHT22;16482;51.046;4.498;2023-08-21T14:28:23;27.50;48.60
29539;DHT22;16482;51.046;4.498;2023-08-21T14:30:55;27.50;48.60
29539;DHT22;16482;51.046;4.498;2023-08-21T14:33:21;27.50;48.50
29539;DHT22;16482;51.046;4.498;2023-08-21T14:35:49;27.50;48.70
29539;DHT22;16482;51.046;4.498;2023-08-21T14:38:15;27.50;48.70
29539;DHT22;16482;51.046;4.498;2023-08-21T14:40:41;27.50;48.50
29539;DHT22;16482;51.046;4.498;2023-08-21T14:43:10;27.50;48.50
29539;DHT22;16482;51.046;4.498;2023-08-21T14:45:36;27.40;48.30
29539;DHT22;16482;51.046;4.498;2023-08-21T14:48:02;27.40;48.20
29539;DHT22;16482;51.046;4.498;2023-08-21T14:50:28;27.50;48.20
29539;DHT22;16482;51.046;4.498;2023-08-21T14:52:54;27.50;47.90
29539;DHT22;16482;51.046;4.498;2023-08-21T14:55:20;27.50;47.70
29539;DHT22;16482;51.046;4.498;2023-08-21T14:57:46;27.50;47.50
29539;DHT22;16482;51.046;4.498;2023-08-21T15:00:13;27.50;47.30
29539;DHT22;16482;51.046;4.498;2023-08-21T15:02:40;27.50;47.50
29539;DHT22;16482;51.046;4.498;2023-08-21T15:05:11;27.50;46.90
29539;DHT22;16482;51.046;4.498;2023-08-21T15:07:40;27.50;46.70
29539;DHT22;16482;51.046;4.498;2023-08-21T15:10:10;27.50;46.60
29539;DHT22;16482;51.046;4.498;2023-08-21T15:12:39;27.50;46.50
29539;DHT22;16482;51.046;4.498;2023-08-21T15:15:08;27.50;46.70
29539;DHT22;16482;51.046;4.498;2023-08-21T15:17:37;27.50;46.70
29539;DHT22;16482;51.046;4.498;2023-08-21T15:20:04;27.50;46.70
29539;DHT22;16482;51.046;4.498;2023-08-21T15:22:39;27.50;46.50
29539;DHT22;16482;51.046;4.498;2023-08-21T15:25:06;27.50;46.40
29539;DHT22;16482;51.046;4.498;2023-08-21T15:27:32;27.50;46.20
29539;DHT22;16482;51.046;4.498;2023-08-21T15:30:00;27.50;46.20
29539;DHT22;16482;51.046;4.498;2023-08-21T15:32:26;27.60;46.20
29539;DHT22;16482;51.046;4.498;2023-08-21T15:34:52;27.50;46.00
29539;DHT22;16482;51.046;4.498;2023-08-21T15:37:18;27.50;45.70
29539;DHT22;16482;51.046;4.498;2023-08-21T15:39:44;27.50;45.80
29539;DHT22;16482;51.046;4.498;2023-08-21T15:42:10;27.50;45.80
29539;DHT22;16482;51.046;4.498;2023-08-21T15:44:36;27.50;45.70